createdAt,value
2017-09-06T00:00:13.841Z,16.31
2017-09-06T00:02:41.427Z,15.99
2017-09-06T00:05:09.180Z,15.84
2017-09-06T00:07:36.792Z,15.80
2017-09-06T00:10:04.622Z,15.66
2017-09-06T00:12:32.273Z,14.48
2017-09-06T00:14:59.839Z,15.10
2017-09-06T00:17:27.420Z,14.53
2017-09-06T00:19:54.983Z,14.64
2017-09-06T00:22:22.662Z,14.52
2017-09-06T00:24:50.288Z,14.65
2017-09-06T00:27:18.188Z,14.91
2017-09-06T00:29:45.765Z,14.50
2017-09-06T00:32:13.537Z,13.98
2017-09-06T00:34:41.119Z,13.49
2017-09-06T00:37:08.658Z,13.75
2017-09-06T00:39:37.017Z,13.99
2017-09-06T00:42:04.795Z,14.30
2017-09-06T00:44:32.595Z,14.21
2017-09-06T00:47:00.182Z,14.26
2017-09-06T00:49:27.946Z,14.05
2017-09-06T00:51:55.489Z,13.64
2017-09-06T00:54:23.200Z,13.48
2017-09-06T00:56:53.954Z,13.48
2017-09-06T00:59:21.739Z,13.61
2017-09-06T01:01:49.555Z,13.67
2017-09-06T01:04:17.375Z,13.77
2017-09-06T01:06:45.108Z,13.71
2017-09-06T01:09:12.911Z,13.54
2017-09-06T01:11:40.579Z,13.69
2017-09-06T01:14:08.341Z,13.58
2017-09-06T01:16:36.162Z,13.61
2017-09-06T01:19:03.957Z,13.52
2017-09-06T01:21:31.876Z,13.72
2017-09-06T01:23:59.528Z,13.66
2017-09-06T01:26:27.073Z,13.04
2017-09-06T01:28:55.689Z,13.08
2017-09-06T01:31:23.306Z,13.09
2017-09-06T01:33:50.893Z,12.87
2017-09-06T01:36:18.514Z,13.02
2017-09-06T01:38:46.112Z,12.76
2017-09-06T01:41:14.013Z,13.14
2017-09-06T01:43:42.772Z,13.22
2017-09-06T01:46:10.402Z,13.24
2017-09-06T01:48:38.006Z,13.14
2017-09-06T01:51:06.057Z,13.05
2017-09-06T01:53:33.696Z,12.66
2017-09-06T01:56:01.580Z,12.64
2017-09-06T01:58:29.379Z,12.63
2017-09-06T02:00:57.003Z,12.72
2017-09-06T02:03:24.632Z,12.96
2017-09-06T02:05:52.314Z,12.79
2017-09-06T02:08:19.922Z,12.63
2017-09-06T02:10:47.636Z,12.70
2017-09-06T02:13:15.190Z,12.89
2017-09-06T02:15:42.812Z,12.96
2017-09-06T02:18:10.387Z,13.18
2017-09-06T02:20:38.444Z,13.44
2017-09-06T02:23:06.520Z,13.45
2017-09-06T02:25:34.207Z,13.64
2017-09-06T02:28:02.139Z,13.62
2017-09-06T02:30:30.015Z,13.48
2017-09-06T02:32:57.588Z,13.48
2017-09-06T02:35:25.151Z,13.68
2017-09-06T02:37:53.267Z,13.58
2017-09-06T02:40:20.871Z,13.51
2017-09-06T02:42:48.445Z,13.46
2017-09-06T02:45:16.623Z,13.62
2017-09-06T02:47:44.220Z,13.69
2017-09-06T02:50:12.106Z,13.67
2017-09-06T02:52:39.878Z,13.55
2017-09-06T02:55:08.274Z,13.61
2017-09-06T02:57:35.880Z,13.59
2017-09-06T03:00:05.701Z,13.50
2017-09-06T03:02:33.506Z,13.42
2017-09-06T03:05:01.183Z,13.47
2017-09-06T03:07:28.848Z,13.50
2017-09-06T03:09:56.478Z,13.52
2017-09-06T03:12:24.089Z,13.52
2017-09-06T03:14:52.217Z,13.54
2017-09-06T03:17:19.767Z,13.38
2017-09-06T03:19:47.357Z,13.29
2017-09-06T03:22:14.983Z,13.28
2017-09-06T03:24:42.579Z,13.40
2017-09-06T03:27:10.167Z,13.41
2017-09-06T03:29:37.772Z,12.76
2017-09-06T03:32:05.325Z,12.61
2017-09-06T03:34:33.307Z,12.75
2017-09-06T03:37:01.740Z,12.92
2017-09-06T03:39:29.376Z,13.04
2017-09-06T03:41:57.015Z,13.27
2017-09-06T03:44:24.743Z,13.39
2017-09-06T03:46:52.399Z,13.51
2017-09-06T03:49:20.193Z,13.52
2017-09-06T03:51:47.977Z,13.51
2017-09-06T03:54:15.558Z,13.63
2017-09-06T03:56:43.318Z,13.60
2017-09-06T03:59:11.072Z,13.43
2017-09-06T04:01:39.473Z,13.41
2017-09-06T04:04:07.088Z,13.38
2017-09-06T04:06:34.669Z,13.31
2017-09-06T04:09:02.340Z,13.47
2017-09-06T04:11:30.663Z,13.61
2017-09-06T04:13:58.245Z,13.71
2017-09-06T04:16:25.882Z,13.80
2017-09-06T04:18:53.461Z,13.68
2017-09-06T04:21:21.113Z,13.64
2017-09-06T04:23:48.996Z,13.70
2017-09-06T04:26:17.538Z,13.86
2017-09-06T04:28:45.119Z,13.81
2017-09-06T04:31:12.712Z,13.84
2017-09-06T04:33:40.240Z,13.81
2017-09-06T04:36:07.788Z,13.71
2017-09-06T04:38:35.373Z,13.64
2017-09-06T04:41:02.941Z,13.89
2017-09-06T04:43:30.475Z,14.55
2017-09-06T04:45:58.128Z,15.43
2017-09-06T04:48:25.774Z,15.38
2017-09-06T04:50:53.617Z,16.17
2017-09-06T04:53:21.373Z,15.89
2017-09-06T04:55:49.155Z,15.64
2017-09-06T04:58:17.043Z,15.81
2017-09-06T05:00:44.794Z,16.80
2017-09-06T05:03:12.687Z,17.12
2017-09-06T05:05:40.570Z,17.64
2017-09-06T05:08:08.253Z,17.90
2017-09-06T05:10:35.830Z,18.05
2017-09-06T05:13:03.524Z,18.39
2017-09-06T05:15:31.250Z,18.98
2017-09-06T05:17:58.822Z,19.46
2017-09-06T05:20:26.545Z,20.60
2017-09-06T05:22:54.191Z,19.94
2017-09-06T05:25:21.829Z,20.46
2017-09-06T05:27:49.640Z,19.88
2017-09-06T05:30:17.433Z,19.73
2017-09-06T05:32:45.081Z,19.56
2017-09-06T05:35:12.666Z,18.62
2017-09-06T05:37:40.303Z,17.61
2017-09-06T05:40:08.072Z,17.18
2017-09-06T05:42:35.935Z,17.59
2017-09-06T05:45:03.525Z,17.14
2017-09-06T05:47:31.112Z,17.27
2017-09-06T05:49:58.674Z,17.53
2017-09-06T05:52:26.632Z,17.96
2017-09-06T05:54:54.358Z,17.92
2017-09-06T05:57:21.946Z,17.75
2017-09-06T05:59:49.549Z,17.82
2017-09-06T06:02:17.178Z,17.49
2017-09-06T06:04:44.761Z,17.50
2017-09-06T06:07:12.585Z,17.53
2017-09-06T06:09:40.219Z,17.56
2017-09-06T06:12:08.251Z,17.73
2017-09-06T06:14:36.094Z,18.00
2017-09-06T06:17:03.944Z,17.81
2017-09-06T06:19:31.654Z,18.03
2017-09-06T06:21:59.404Z,18.33
2017-09-06T06:24:27.109Z,18.92
2017-09-06T06:26:54.990Z,19.89
2017-09-06T06:29:22.666Z,21.08
2017-09-06T06:31:50.347Z,22.00
2017-09-06T06:34:18.132Z,22.41
2017-09-06T06:36:45.897Z,23.05
2017-09-06T06:39:13.559Z,23.30
2017-09-06T06:41:41.434Z,23.87
2017-09-06T06:44:09.107Z,24.30
2017-09-06T06:46:36.820Z,24.56
2017-09-06T06:49:04.573Z,25.07
2017-09-06T06:51:32.243Z,24.69
2017-09-06T06:54:00.069Z,25.34
2017-09-06T06:56:27.706Z,26.38
2017-09-06T06:58:55.406Z,26.40
2017-09-06T07:01:23.971Z,26.79
2017-09-06T07:03:51.533Z,26.66
2017-09-06T07:06:19.096Z,25.17
2017-09-06T07:08:46.737Z,24.32
2017-09-06T07:11:14.376Z,23.31
2017-09-06T07:13:41.950Z,23.32
2017-09-06T07:16:10.027Z,23.43
2017-09-06T07:18:38.583Z,23.32
2017-09-06T07:21:07.037Z,23.33
2017-09-06T07:23:35.091Z,23.37
2017-09-06T07:26:03.024Z,23.07
2017-09-06T07:28:30.794Z,23.09
2017-09-06T07:30:58.732Z,22.70
2017-09-06T07:33:27.582Z,22.55
2017-09-06T07:35:55.551Z,22.53
2017-09-06T07:38:23.794Z,22.69
2017-09-06T07:40:51.522Z,22.96
2017-09-06T07:43:20.058Z,22.75
2017-09-06T07:45:48.266Z,22.84
2017-09-06T07:48:16.218Z,23.17
2017-09-06T07:50:44.093Z,22.65
2017-09-06T07:53:12.252Z,22.69
2017-09-06T07:55:41.011Z,22.42
2017-09-06T07:58:09.011Z,23.19
2017-09-06T08:00:37.433Z,23.08
2017-09-06T08:03:06.734Z,22.80
2017-09-06T08:05:34.748Z,23.12
2017-09-06T08:08:07.324Z,23.50
2017-09-06T08:10:35.081Z,24.26
2017-09-06T08:13:02.785Z,23.99
2017-09-06T08:15:30.533Z,24.27
2017-09-06T08:17:58.168Z,24.21
2017-09-06T08:20:25.754Z,24.16
2017-09-06T08:22:53.618Z,23.88
2017-09-06T08:25:21.145Z,24.01
2017-09-06T08:27:48.765Z,24.19
2017-09-06T08:30:16.492Z,24.42
2017-09-06T08:32:44.134Z,24.71
2017-09-06T08:35:12.163Z,24.63
2017-09-06T08:37:39.920Z,24.91
2017-09-06T08:40:07.543Z,25.81
2017-09-06T08:42:35.061Z,25.28
2017-09-06T08:45:02.644Z,25.34
2017-09-06T08:47:30.259Z,25.74
2017-09-06T08:49:58.030Z,26.02
2017-09-06T08:52:25.664Z,25.71
2017-09-06T08:54:53.408Z,26.08
2017-09-06T08:57:20.993Z,26.02
2017-09-06T08:59:48.631Z,25.63
2017-09-06T09:02:16.257Z,25.90
2017-09-06T09:04:43.847Z,25.86
2017-09-06T09:07:11.405Z,26.21
2017-09-06T09:09:38.993Z,26.37
2017-09-06T09:12:06.755Z,26.45
2017-09-06T09:14:34.439Z,25.98
2017-09-06T09:17:02.775Z,25.66
2017-09-06T09:19:36.466Z,25.22
2017-09-06T09:22:08.536Z,25.23
2017-09-06T09:24:36.111Z,24.78
2017-09-06T09:27:03.909Z,25.24
2017-09-06T09:29:31.728Z,25.47
2017-09-06T09:31:59.345Z,25.49
2017-09-06T09:34:26.944Z,25.29
2017-09-06T09:36:54.475Z,25.24
2017-09-06T09:39:22.046Z,25.70
2017-09-06T09:41:49.820Z,25.41
2017-09-06T09:44:17.375Z,25.78
2017-09-06T09:46:44.949Z,25.36
2017-09-06T09:49:12.539Z,25.58
2017-09-06T09:51:40.289Z,25.45
2017-09-06T09:54:07.880Z,25.40
2017-09-06T09:56:35.449Z,25.46
2017-09-06T09:59:02.980Z,25.98
2017-09-06T10:01:30.587Z,26.05
2017-09-06T10:03:58.160Z,25.78
2017-09-06T10:06:26.649Z,25.84
2017-09-06T10:08:54.241Z,25.52
2017-09-06T10:11:21.760Z,25.82
2017-09-06T10:13:49.352Z,25.57
2017-09-06T10:16:16.950Z,25.87
2017-09-06T10:18:44.572Z,26.01
2017-09-06T10:21:12.137Z,25.67
2017-09-06T10:23:39.743Z,26.14
2017-09-06T10:26:07.280Z,26.23
2017-09-06T10:28:34.808Z,26.35
2017-09-06T10:31:02.591Z,26.28
2017-09-06T10:33:30.133Z,26.54
2017-09-06T10:35:57.730Z,26.57
2017-09-06T10:38:25.285Z,26.53
2017-09-06T10:40:53.076Z,26.66
2017-09-06T10:43:20.580Z,26.44
2017-09-06T10:45:48.217Z,26.62
2017-09-06T10:48:15.800Z,26.92
2017-09-06T10:50:43.707Z,26.75
2017-09-06T10:53:11.265Z,26.90
2017-09-06T10:55:38.795Z,26.69
2017-09-06T10:58:06.327Z,26.82
2017-09-06T11:00:33.963Z,26.75
2017-09-06T11:03:01.513Z,27.11
2017-09-06T11:05:29.025Z,26.98
2017-09-06T11:07:56.624Z,26.64
2017-09-06T11:10:24.139Z,26.66
2017-09-06T11:12:51.881Z,26.63
2017-09-06T11:15:19.925Z,26.78
2017-09-06T11:17:47.475Z,26.77
2017-09-06T11:20:14.995Z,26.70
2017-09-06T11:22:42.556Z,26.89
2017-09-06T11:25:10.075Z,26.90
2017-09-06T11:27:37.637Z,26.48
2017-09-06T11:30:06.774Z,26.75
2017-09-06T11:32:36.204Z,26.94
2017-09-06T11:35:04.069Z,26.94
2017-09-06T11:37:31.637Z,26.82
2017-09-06T11:39:59.164Z,26.86
2017-09-06T11:42:27.003Z,26.88
2017-09-06T11:44:54.723Z,26.68
2017-09-06T11:47:22.340Z,26.59
2017-09-06T11:49:49.883Z,26.75
2017-09-06T11:52:20.581Z,26.63
2017-09-06T11:54:48.185Z,26.79
2017-09-06T11:57:15.704Z,26.87
2017-09-06T11:59:43.266Z,26.91
2017-09-06T12:02:11.198Z,27.08
2017-09-06T12:04:38.791Z,27.27
2017-09-06T12:07:06.433Z,27.33
2017-09-06T12:09:34.052Z,26.95
2017-09-06T12:12:01.855Z,27.13
2017-09-06T12:14:29.504Z,27.06
2017-09-06T12:16:57.146Z,26.99
2017-09-06T12:19:26.806Z,27.08
2017-09-06T12:21:54.364Z,26.85
2017-09-06T12:24:21.955Z,26.64
2017-09-06T12:26:49.516Z,26.66
2017-09-06T12:29:17.029Z,26.89
2017-09-06T12:31:44.807Z,27.11
2017-09-06T12:34:12.341Z,26.97
2017-09-06T12:36:39.905Z,27.12
2017-09-06T12:39:07.493Z,27.16
2017-09-06T12:41:35.066Z,27.22
2017-09-06T12:44:02.703Z,27.35
2017-09-06T12:46:31.190Z,27.39
2017-09-06T12:48:59.130Z,27.43
2017-09-06T12:51:27.632Z,27.27
2017-09-06T12:53:55.488Z,27.01
2017-09-06T12:56:23.079Z,27.00
2017-09-06T12:59:16.484Z,27.07
2017-09-06T13:01:44.061Z,27.00
2017-09-06T13:04:11.566Z,26.73
2017-09-06T13:06:39.136Z,26.72
2017-09-06T13:09:06.715Z,26.64
2017-09-06T13:11:35.725Z,26.59
2017-09-06T13:14:03.363Z,26.74
2017-09-06T13:19:29.678Z,26.85
2017-09-06T13:21:57.251Z,26.81
2017-09-06T13:24:24.783Z,26.64
2017-09-06T13:26:52.350Z,26.67
2017-09-06T13:29:19.935Z,26.55
2017-09-06T13:31:47.508Z,26.54
2017-09-06T13:34:15.068Z,26.49
2017-09-06T13:36:42.613Z,26.58
2017-09-06T13:39:10.194Z,26.39
2017-09-06T13:41:37.706Z,26.34
2017-09-06T13:44:05.491Z,26.29
2017-09-06T13:46:33.103Z,26.33
2017-09-06T13:49:00.707Z,26.13
2017-09-06T13:51:28.274Z,26.30
2017-09-06T13:53:55.849Z,26.40
2017-09-06T13:56:23.581Z,26.11
2017-09-06T13:58:51.112Z,26.24
2017-09-06T14:01:18.708Z,26.31
2017-09-06T14:03:46.231Z,26.27
2017-09-06T14:06:13.965Z,26.24
2017-09-06T14:08:41.560Z,26.10
2017-09-06T14:11:09.862Z,26.06
2017-09-06T14:13:37.532Z,25.91
2017-09-06T14:16:05.938Z,25.89
2017-09-06T14:18:33.814Z,25.72
2017-09-06T14:21:01.387Z,25.74
2017-09-06T14:23:29.157Z,25.61
2017-09-06T14:25:56.735Z,25.63
2017-09-06T14:28:24.514Z,25.87
2017-09-06T14:30:52.087Z,25.70
2017-09-06T14:33:19.840Z,25.68
2017-09-06T14:35:47.392Z,25.76
2017-09-06T14:38:14.943Z,25.79
2017-09-06T14:40:42.594Z,25.74
2017-09-06T14:43:10.369Z,25.65
2017-09-06T14:45:38.005Z,25.53
2017-09-06T14:48:05.597Z,25.57
2017-09-06T14:50:33.192Z,25.36
2017-09-06T14:53:00.932Z,25.42
2017-09-06T14:55:28.600Z,25.42
2017-09-06T14:57:56.135Z,25.50
2017-09-06T15:00:23.736Z,25.56
2017-09-06T15:02:51.272Z,25.46
2017-09-06T15:05:19.137Z,25.27
2017-09-06T15:07:46.752Z,25.17
2017-09-06T15:10:14.404Z,25.20
2017-09-06T15:12:41.952Z,25.11
2017-09-06T15:15:09.561Z,25.31
2017-09-06T15:17:37.121Z,25.26
2017-09-06T15:20:04.668Z,25.16
2017-09-06T15:22:32.248Z,25.09
2017-09-06T15:25:00.035Z,25.13
2017-09-06T15:27:27.659Z,24.99
2017-09-06T15:29:55.207Z,24.97
2017-09-06T15:32:22.809Z,24.97
2017-09-06T15:34:50.600Z,24.89
2017-09-06T15:37:18.574Z,24.86
2017-09-06T15:39:46.334Z,24.93
2017-09-06T15:42:13.926Z,24.84
2017-09-06T15:44:41.465Z,24.87
2017-09-06T15:47:09.929Z,24.66
2017-09-06T15:49:38.341Z,24.56
2017-09-06T15:52:06.124Z,24.53
2017-09-06T15:54:33.696Z,24.58
2017-09-06T15:57:01.681Z,24.60
2017-09-06T15:59:29.289Z,24.45
2017-09-06T16:05:28.333Z,24.32
2017-09-06T16:07:56.142Z,24.24
2017-09-06T16:10:23.701Z,24.19
2017-09-06T16:12:51.287Z,24.09
2017-09-06T16:15:18.865Z,24.05
2017-09-06T16:17:46.433Z,24.04
2017-09-06T16:20:14.114Z,23.97
2017-09-06T16:22:41.640Z,23.90
2017-09-06T16:25:09.217Z,23.85
2017-09-06T16:27:36.820Z,23.82
2017-09-06T16:30:11.552Z,23.75
2017-09-06T16:32:39.656Z,23.74
2017-09-06T16:35:07.255Z,23.70
2017-09-06T16:37:35.141Z,23.59
2017-09-06T16:40:05.101Z,23.58
2017-09-06T16:45:43.663Z,23.44
2017-09-06T16:48:24.537Z,23.25
2017-09-06T16:50:52.183Z,23.23
2017-09-06T16:53:30.869Z,23.20
2017-09-06T16:55:58.467Z,23.17
2017-09-06T16:58:26.255Z,23.18
2017-09-06T17:00:53.838Z,23.15
2017-09-06T17:03:21.366Z,23.07
2017-09-06T17:05:48.904Z,22.99
2017-09-06T17:08:16.774Z,22.92
2017-09-06T17:10:44.355Z,22.96
2017-09-06T17:13:11.956Z,22.91
2017-09-06T17:15:39.554Z,22.83
2017-09-06T17:18:07.087Z,22.76
2017-09-06T17:20:34.701Z,22.77
2017-09-06T17:23:02.368Z,22.61
2017-09-06T17:25:30.017Z,22.68
2017-09-06T17:27:57.631Z,22.64
2017-09-06T17:30:25.372Z,22.61
2017-09-06T17:32:53.069Z,22.49
2017-09-06T17:35:20.621Z,22.48
2017-09-06T17:37:48.303Z,22.44
2017-09-06T17:40:15.888Z,22.42
2017-09-06T17:42:43.445Z,22.42
2017-09-06T17:45:11.036Z,22.40
2017-09-06T17:47:38.859Z,22.39
2017-09-06T17:50:06.518Z,22.44
2017-09-06T17:52:34.102Z,22.40
2017-09-06T17:55:01.852Z,22.22
2017-09-06T17:57:29.427Z,22.22
2017-09-06T17:59:57.185Z,22.16
2017-09-06T18:02:24.856Z,22.12
2017-09-06T18:04:52.634Z,22.11
2017-09-06T18:07:20.208Z,22.08
2017-09-06T18:09:47.919Z,22.10
2017-09-06T18:12:16.112Z,21.98
2017-09-06T18:14:43.819Z,22.02
2017-09-06T18:17:12.359Z,21.85
2017-09-06T18:19:40.889Z,21.77
2017-09-06T18:22:10.054Z,21.78
2017-09-06T18:24:37.852Z,21.72
2017-09-06T18:27:06.808Z,21.55
2017-09-06T18:29:35.411Z,21.34
2017-09-06T18:32:03.092Z,21.37
2017-09-06T18:34:30.713Z,21.24
2017-09-06T18:36:58.948Z,21.33
2017-09-06T18:39:34.271Z,21.27
2017-09-06T18:42:01.936Z,21.36
2017-09-06T18:44:29.632Z,21.22
2017-09-06T18:46:57.245Z,21.02
2017-09-06T18:49:24.848Z,21.02
2017-09-06T18:51:52.464Z,20.86
2017-09-06T18:54:20.049Z,20.78
2017-09-06T18:56:48.562Z,20.78
2017-09-06T18:59:16.222Z,20.72
2017-09-06T19:01:48.900Z,20.85
2017-09-06T19:04:19.396Z,20.91
2017-09-06T19:06:49.073Z,20.87
2017-09-06T19:09:16.853Z,20.88
2017-09-06T19:11:45.078Z,20.89
2017-09-06T19:14:13.673Z,20.84
2017-09-06T19:16:41.757Z,20.96
2017-09-06T19:19:09.576Z,21.04
2017-09-06T19:21:37.408Z,20.98
2017-09-06T19:24:05.408Z,20.76
2017-09-06T19:26:32.975Z,20.75
2017-09-06T19:29:00.535Z,20.55
2017-09-06T19:31:28.205Z,20.50
2017-09-06T19:33:56.126Z,20.39
2017-09-06T19:36:23.777Z,20.71
2017-09-06T19:38:51.402Z,20.54
2017-09-06T19:41:20.423Z,20.52
2017-09-06T19:43:48.060Z,20.51
2017-09-06T19:46:15.689Z,20.32
2017-09-06T19:48:43.338Z,20.42
2017-09-06T19:51:11.612Z,20.38
2017-09-06T19:53:39.189Z,20.26
2017-09-06T19:56:07.701Z,20.16
2017-09-06T19:58:35.821Z,20.12
2017-09-06T20:01:03.529Z,20.09
2017-09-06T20:03:31.095Z,20.13
2017-09-06T20:06:00.435Z,20.10
2017-09-06T20:08:28.011Z,20.03
2017-09-06T20:10:55.587Z,19.94
2017-09-06T20:13:23.351Z,20.03
2017-09-06T20:15:51.372Z,19.94
2017-09-06T20:18:19.816Z,19.87
2017-09-06T20:20:48.455Z,19.61
2017-09-06T20:23:43.121Z,19.49
2017-09-06T20:26:59.146Z,19.57
2017-09-06T20:29:28.313Z,19.57
2017-09-06T20:31:56.059Z,19.66
2017-09-06T20:34:23.945Z,19.60
2017-09-06T20:36:52.064Z,18.96
2017-09-06T20:39:19.716Z,19.00
2017-09-06T20:45:17.919Z,19.15
2017-09-06T20:47:45.602Z,19.28
2017-09-06T20:53:46.396Z,19.27
2017-09-06T20:56:26.726Z,19.29
2017-09-06T20:58:54.321Z,18.99
2017-09-06T21:01:22.802Z,18.96
2017-09-06T21:03:51.525Z,18.99
2017-09-06T21:06:20.759Z,18.81
2017-09-06T21:08:48.627Z,18.80
2017-09-06T21:11:16.822Z,18.90
2017-09-06T21:13:44.588Z,18.92
2017-09-06T21:16:13.155Z,18.93
2017-09-06T21:18:40.958Z,18.96
2017-09-06T21:21:35.729Z,18.89
2017-09-06T21:27:21.777Z,18.70
2017-09-06T21:29:49.543Z,18.79
2017-09-06T21:39:18.648Z,18.70
2017-09-06T21:41:47.126Z,18.69
2017-09-06T21:44:14.915Z,18.44
2017-09-06T21:46:43.403Z,18.63
2017-09-06T21:49:11.942Z,18.51
2017-09-06T21:51:39.693Z,18.34
2017-09-06T21:54:07.308Z,18.47
2017-09-06T21:56:34.855Z,18.48
2017-09-06T21:59:02.408Z,18.48
2017-09-06T22:01:30.361Z,18.35
2017-09-06T22:03:57.888Z,18.44
2017-09-06T22:06:25.420Z,18.35
2017-09-06T22:08:53.160Z,18.32
2017-09-06T22:11:21.381Z,18.37
2017-09-06T22:13:49.135Z,18.17
2017-09-06T22:16:16.724Z,18.12
2017-09-06T22:18:44.301Z,18.18
2017-09-06T22:21:11.840Z,18.16
2017-09-06T22:23:39.475Z,18.04
2017-09-06T22:26:07.913Z,18.04
2017-09-06T22:28:36.598Z,18.05
2017-09-06T22:31:04.512Z,18.13
2017-09-06T22:33:32.052Z,17.91
2017-09-06T22:35:59.583Z,17.96
2017-09-06T22:38:27.199Z,17.76
2017-09-06T22:40:54.942Z,17.65
2017-09-06T22:43:22.614Z,17.67
2017-09-06T22:45:50.215Z,17.52
2017-09-06T22:48:17.763Z,17.47
2017-09-06T22:50:46.176Z,17.49
2017-09-06T22:53:13.752Z,17.43
2017-09-06T22:55:42.917Z,17.43
2017-09-06T22:58:10.443Z,17.43
2017-09-06T23:00:39.296Z,17.39
2017-09-06T23:03:06.892Z,17.36
2017-09-06T23:05:34.550Z,17.40
2017-09-06T23:08:02.116Z,17.42
2017-09-06T23:10:29.626Z,17.36
2017-09-06T23:12:57.752Z,17.32
2017-09-06T23:15:25.606Z,17.28
2017-09-06T23:17:53.295Z,17.33
2017-09-06T23:20:20.821Z,17.26
2017-09-06T23:22:48.399Z,17.28
2017-09-06T23:25:15.927Z,17.09
2017-09-06T23:27:44.867Z,17.08
2017-09-06T23:30:13.502Z,16.35
2017-09-06T23:32:41.027Z,16.37
2017-09-06T23:35:08.796Z,16.49
2017-09-06T23:37:36.342Z,16.39
2017-09-06T23:40:03.888Z,16.62
2017-09-06T23:42:31.398Z,16.82
2017-09-06T23:44:58.967Z,16.79
2017-09-06T23:47:26.492Z,16.81
2017-09-06T23:49:54.252Z,16.83
2017-09-06T23:52:21.814Z,16.76
2017-09-06T23:54:49.326Z,16.88
2017-09-06T23:57:17.400Z,16.92
2017-09-06T23:59:44.947Z,16.86
